Tapso, Argentina
Current Conditions -  °F | °C
As of 1:00 PM on Wednesday 26 Nov 2014 (Local Time) from SANT Reporting Station
Smoke Smoke  
Wind Chill: 22°   Ceiling: 4500
Heat Index: 22°   Visibility: 3mi
Dew Point: 19°   Wind: 2mph
Humidity: 83%   Direction: 230°SW
Pressure: 30"   Gusts: NA
Location:  28.41°S, 65.09°W
Report Text: SANT 261600Z 23002KT 5000 FU FEW015 BKN04522/19 Q1016
Loading
Personal Weather Stations






























Interactive Weather Map New forecast layout! Learn more

10-Day Weather Forecast

Advertisements
Track Severe Weather on mobile